Time;durP1;ratioP1;P1;durP2;ratioP2;P2;SDS_P1;SDS_P2;PMS_P1;PMS_P2;Temp;Humidity;BMP_temperature;BMP_pressure;BME280_temperature;BME280_humidity;BME280_pressure;Samples;Min_cycle;Max_cycle;Signal;HPM_P1;HPM_P2
2022/12/25 00:02:06;;;;;;;7.6;4.9;;;;;;;7.28;100;940.4713;;;;
2022/12/25 00:11:09;;;;;;;6.3;4.7;;;;;;;7.31;100;940.4754;;;;
2022/12/25 00:14:06;;;;;;;5.1;4;;;;;;;7.27;100;940.498;;;;
2022/12/25 00:16:50;;;;;;;5.1;4.5;;;;;;;7.33;100;940.5037;;;;
2022/12/25 00:19:27;;;;;;;3.7;3.3;;;;;;;7.41;100;940.467;;;;
2022/12/25 00:21:55;;;;;;;4.5;3.8;;;;;;;7.45;100;940.4696;;;;
2022/12/25 00:24:23;;;;;;;5.4;4.7;;;;;;;7.51;100;940.4409;;;;
2022/12/25 00:26:49;;;;;;;7.1;4.8;;;;;;;7.49;100;940.4397;;;;
2022/12/25 00:31:55;;;;;;;5.3;4.1;;;;;;;7.53;100;940.4651;;;;
2022/12/25 00:35:34;;;;;;;5.3;4;;;;;;;7.48;100;940.4736;;;;
2022/12/25 00:42:17;;;;;;;8.3;5.8;;;;;;;7.42;100;940.3699;;;;
2022/12/25 00:43:47;;;;;;;9.4;6.3;;;;;;;7.4;100;940.4221;;;;
2022/12/25 00:46:16;;;;;;;6.5;4.9;;;;;;;7.41;100;940.3641;;;;
2022/12/25 00:48:44;;;;;;;4.8;3.9;;;;;;;7.38;100;940.3867;;;;
2022/12/25 00:51:11;;;;;;;5.9;4.2;;;;;;;7.4;100;940.4111;;;;
2022/12/25 00:53:41;;;;;;;2.9;2.5;;;;;;;7.41;100;940.4869;;;;
2022/12/25 00:56:11;;;;;;;2.5;1.7;;;;;;;7.42;100;940.4309;;;;
2022/12/25 00:58:42;;;;;;;2.6;2.1;;;;;;;7.39;100;940.5234;;;;
2022/12/25 01:01:07;;;;;;;1.8;1.7;;;;;;;7.35;100;940.478;;;;
2022/12/25 01:03:36;;;;;;;1.4;1.3;;;;;;;7.36;100;940.4828;;;;
2022/12/25 01:06:04;;;;;;;2.6;1.9;;;;;;;7.35;100;940.3924;;;;
2022/12/25 01:08:29;;;;;;;2.9;2;;;;;;;7.3;100;940.4316;;;;
2022/12/25 01:10:54;;;;;;;1.8;1.7;;;;;;;7.3;100;940.4285;;;;
2022/12/25 01:13:19;;;;;;;1.8;1.3;;;;;;;7.3;100;940.4316;;;;
2022/12/25 01:15:44;;;;;;;2;1.5;;;;;;;7.3;100;940.4434;;;;
2022/12/25 01:18:09;;;;;;;2.3;1.4;;;;;;;7.21;100;940.4301;;;;
2022/12/25 01:23:01;;;;;;;2.1;1.9;;;;;;;7.17;100;940.4944;;;;
2022/12/25 01:25:26;;;;;;;3;2.5;;;;;;;7.11;100;940.4556;;;;
2022/12/25 01:27:53;;;;;;;5.4;3.9;;;;;;;7.14;100;940.5262;;;;
2022/12/25 01:30:18;;;;;;;7.3;4.9;;;;;;;7.21;100;940.5516;;;;
2022/12/25 01:32:46;;;;;;;16;10.6;;;;;;;7.24;100;940.5306;;;;
2022/12/25 01:35:12;;;;;;;12.9;10.1;;;;;;;7.27;100;940.5765;;;;
2022/12/25 01:37:39;;;;;;;11.3;8;;;;;;;7.33;100;940.5962;;;;
2022/12/25 01:40:05;;;;;;;9.5;7.1;;;;;;;7.37;100;940.5441;;;;
2022/12/25 01:42:30;;;;;;;9.1;6.5;;;;;;;7.39;100;940.5723;;;;
2022/12/25 01:44:56;;;;;;;6.9;5.1;;;;;;;7.36;100;940.5226;;;;
2022/12/25 01:47:21;;;;;;;5.6;3.6;;;;;;;7.2;100;940.5006;;;;
2022/12/25 01:49:49;;;;;;;4;2.9;;;;;;;7.11;100;940.4938;;;;
2022/12/25 01:52:14;;;;;;;4.1;3;;;;;;;7.01;100;940.4484;;;;
2022/12/25 01:54:43;;;;;;;4.5;3.3;;;;;;;6.93;100;940.495;;;;
2022/12/25 01:57:08;;;;;;;4.4;2.9;;;;;;;6.93;100;940.3558;;;;
2022/12/25 01:59:35;;;;;;;3.9;3.1;;;;;;;6.94;100;940.4106;;;;
2022/12/25 02:02:06;;;;;;;4.4;3.4;;;;;;;6.97;100;940.2665;;;;
2022/12/25 02:04:39;;;;;;;3.7;2.4;;;;;;;6.98;100;940.3524;;;;
2022/12/25 02:06:57;;;;;;;2.3;2.1;;;;;;;7.03;100;940.3745;;;;
2022/12/25 02:09:22;;;;;;;3;2.1;;;;;;;7.16;100;940.2686;;;;
2022/12/25 02:12:00;;;;;;;5.7;3.8;;;;;;;7.25;100;940.283;;;;
2022/12/25 02:14:16;;;;;;;6.8;4;;;;;;;7.22;100;940.2211;;;;
2022/12/25 02:16:41;;;;;;;4.8;3.4;;;;;;;7.29;100;940.318;;;;
2022/12/25 02:19:09;;;;;;;3.9;2.7;;;;;;;7.3;100;940.2938;;;;
2022/12/25 02:21:34;;;;;;;2.8;2.2;;;;;;;7.36;100;940.2753;;;;
2022/12/25 02:23:59;;;;;;;2.8;2.2;;;;;;;7.21;100;940.3298;;;;
2022/12/25 02:26:26;;;;;;;3.3;2.4;;;;;;;7.14;100;940.322;;;;
2022/12/25 02:28:53;;;;;;;2.8;2.6;;;;;;;7.13;100;940.2488;;;;
2022/12/25 02:31:18;;;;;;;3.4;2.8;;;;;;;6.95;100;940.277;;;;
2022/12/25 02:36:09;;;;;;;2;1.8;;;;;;;6.95;100;940.1766;;;;
2022/12/25 02:38:38;;;;;;;2.2;2;;;;;;;6.95;100;940.19;;;;
2022/12/25 02:41:05;;;;;;;2.2;2;;;;;;;6.99;100;940.1507;;;;
2022/12/25 03:07:54;;;;;;;1.6;1.3;;;;;;;7.25;100;940.2958;;;;
2022/12/25 03:12:44;;;;;;;1.3;1.2;;;;;;;7.23;100;940.2673;;;;
2022/12/25 03:17:41;;;;;;;2.5;2.1;;;;;;;7.35;100;940.2878;;;;
2022/12/25 03:27:25;;;;;;;3.9;3;;;;;;;7.32;100;940.1326;;;;
2022/12/25 03:31:12;;;;;;;2.6;2.1;;;;;;;7.25;100;940.1428;;;;
2022/12/25 03:32:15;;;;;;;2.2;1.8;;;;;;;7.19;100;940.11;;;;
2022/12/25 03:37:18;;;;;;;2.4;1.9;;;;;;;7.21;100;939.993;;;;
2022/12/25 03:44:47;;;;;;;9.8;4.6;;;;;;;7.1;100;939.8433;;;;
2022/12/25 04:37:37;;;;;;;2.6;2.3;;;;;;;6.78;100;939.7048;;;;
2022/12/25 04:40:03;;;;;;;2.3;2.1;;;;;;;6.8;100;939.775;;;;
2022/12/25 04:42:29;;;;;;;3.4;2.5;;;;;;;6.77;100;939.8162;;;;
2022/12/25 04:44:56;;;;;;;2.5;2.3;;;;;;;6.73;100;939.8389;;;;
2022/12/25 04:47:21;;;;;;;1.9;1.8;;;;;;;6.7;100;939.7947;;;;
2022/12/25 04:49:48;;;;;;;2;1.8;;;;;;;6.55;100;939.8378;;;;
2022/12/25 04:58:55;;;;;;;2.1;1.9;;;;;;;6.49;100;939.8552;;;;
2022/12/25 05:01:12;;;;;;;3.9;2.6;;;;;;;6.65;100;939.8394;;;;
2022/12/25 05:03:37;;;;;;;4.2;2.7;;;;;;;6.7;100;939.8929;;;;
2022/12/25 05:06:03;;;;;;;4.2;3.2;;;;;;;6.66;100;939.8711;;;;
2022/12/25 05:08:28;;;;;;;3.7;2.3;;;;;;;6.72;100;939.8892;;;;
2022/12/25 05:10:53;;;;;;;3.9;3.2;;;;;;;6.73;100;939.8396;;;;
2022/12/25 05:13:20;;;;;;;3.5;3.2;;;;;;;6.75;100;939.9266;;;;
2022/12/25 05:15:45;;;;;;;3.6;2.7;;;;;;;6.77;100;939.9706;;;;
2022/12/25 05:18:13;;;;;;;3;2.4;;;;;;;6.73;100;939.8959;;;;
2022/12/25 05:20:38;;;;;;;1.5;1.4;;;;;;;6.73;100;939.8926;;;;
2022/12/25 05:23:06;;;;;;;1.9;1.6;;;;;;;6.76;100;939.9283;;;;
2022/12/25 05:25:31;;;;;;;2.3;1.7;;;;;;;6.73;100;939.8976;;;;
2022/12/25 05:28:00;;;;;;;1.7;1.5;;;;;;;6.69;100;939.9883;;;;
2022/12/25 05:30:25;;;;;;;1.7;1.4;;;;;;;6.77;100;939.935;;;;
2022/12/25 05:32:54;;;;;;;1.3;1.2;;;;;;;6.83;100;940.0151;;;;
2022/12/25 05:35:25;;;;;;;1.3;1.2;;;;;;;6.86;100;940.0413;;;;
2022/12/25 05:37:55;;;;;;;1.5;1.3;;;;;;;6.9;100;940.055;;;;
2022/12/25 05:40:20;;;;;;;1.5;1.4;;;;;;;6.87;100;940.0446;;;;
2022/12/25 05:42:45;;;;;;;2.7;1.8;;;;;;;6.88;100;939.9816;;;;
2022/12/25 05:45:12;;;;;;;2.6;2.4;;;;;;;6.87;100;940.0186;;;;
2022/12/25 05:47:37;;;;;;;3.5;3.2;;;;;;;6.89;100;940.0617;;;;
2022/12/25 05:50:05;;;;;;;5.4;3.6;;;;;;;6.88;100;940.1597;;;;
2022/12/25 05:56:12;;;;;;;4.9;3.8;;;;;;;6.68;100;940.14;;;;
2022/12/25 05:58:40;;;;;;;8.1;5.8;;;;;;;6.62;100;940.1122;;;;
2022/12/25 06:01:05;;;;;;;7.1;5.3;;;;;;;6.6;100;940.0639;;;;
2022/12/25 06:08:36;;;;;;;5.5;4.1;;;;;;;6.29;100;940.0036;;;;
2022/12/25 06:11:05;;;;;;;4.5;3.2;;;;;;;6.22;100;940.1155;;;;
2022/12/25 06:13:29;;;;;;;5;3.6;;;;;;;6.07;100;940.1031;;;;
2022/12/25 06:16:03;;;;;;;3.1;2.6;;;;;;;6.01;100;939.9653;;;;
2022/12/25 06:18:28;;;;;;;1;0.9;;;;;;;6.03;100;940.037;;;;
2022/12/25 06:20:55;;;;;;;2.2;1.6;;;;;;;6.19;100;940.1111;;;;
2022/12/25 06:23:20;;;;;;;1.9;1.7;;;;;;;6.19;100;940.0781;;;;
2022/12/25 06:25:47;;;;;;;1.6;1.4;;;;;;;6.14;100;940.0725;;;;
2022/12/25 06:28:12;;;;;;;1.9;1.7;;;;;;;6.09;100;940.0144;;;;
2022/12/25 06:30:41;;;;;;;3.3;2.3;;;;;;;6.01;100;940.0846;;;;
2022/12/25 06:33:06;;;;;;;3.7;2.6;;;;;;;5.88;100;940.0053;;;;
2022/12/25 06:35:37;;;;;;;4.5;3.5;;;;;;;5.8;100;940.0981;;;;
2022/12/25 06:38:07;;;;;;;3.9;3.5;;;;;;;5.86;100;940.0709;;;;
2022/12/25 06:40:36;;;;;;;4.1;3.1;;;;;;;5.87;100;940.0642;;;;
2022/12/25 06:43:01;;;;;;;3.1;2.7;;;;;;;5.87;100;940.0714;;;;
2022/12/25 06:45:29;;;;;;;3.7;2.7;;;;;;;5.91;100;940.1155;;;;
2022/12/25 06:48:00;;;;;;;4.2;3.5;;;;;;;5.87;100;940.0531;;;;
2022/12/25 06:50:27;;;;;;;4.8;3.8;;;;;;;5.77;100;940.0775;;;;
2022/12/25 06:52:52;;;;;;;5.8;4.2;;;;;;;5.64;100;940.0664;;;;
2022/12/25 06:55:54;;;;;;;4.3;3.9;;;;;;;5.62;100;940.0446;;;;
2022/12/25 06:58:19;;;;;;;4.5;3.8;;;;;;;5.58;100;940.0494;;;;
2022/12/25 07:00:44;;;;;;;5.1;3.7;;;;;;;5.53;100;940.0573;;;;
2022/12/25 07:03:12;;;;;;;4.8;3.8;;;;;;;5.51;100;940.0993;;;;
2022/12/25 07:06:58;;;;;;;5.6;4.1;;;;;;;5.53;100;940.1021;;;;
2022/12/25 07:09:06;;;;;;;6;5.2;;;;;;;5.36;100;940.0759;;;;
2022/12/25 07:11:31;;;;;;;5.2;4.3;;;;;;;5.47;100;940.1336;;;;
2022/12/25 07:13:58;;;;;;;5.2;4.2;;;;;;;5.56;100;940.0937;;;;
2022/12/25 07:16:23;;;;;;;4.6;4.1;;;;;;;5.59;100;940.0385;;;;
2022/12/25 07:18:53;;;;;;;6;4.5;;;;;;;5.56;100;940.1387;;;;
2022/12/25 07:21:22;;;;;;;5.2;4.6;;;;;;;5.69;100;940.157;;;;
2022/12/25 07:23:47;;;;;;;7.2;5.5;;;;;;;5.71;100;940.1387;;;;
2022/12/25 07:26:12;;;;;;;9.1;6.5;;;;;;;5.7;100;940.2065;;;;
2022/12/25 07:28:37;;;;;;;11.5;8.6;;;;;;;5.7;100;940.193;;;;
2022/12/25 07:31:04;;;;;;;6.4;5.3;;;;;;;5.57;100;940.24;;;;
2022/12/25 07:33:29;;;;;;;4.7;4.1;;;;;;;5.49;100;940.1769;;;;
2022/12/25 07:35:56;;;;;;;4.5;4.1;;;;;;;5.52;100;940.1786;;;;
2022/12/25 07:38:23;;;;;;;4.8;4;;;;;;;5.59;100;940.1886;;;;
2022/12/25 07:40:56;;;;;;;4.4;3.5;;;;;;;5.6;100;940.173;;;;
2022/12/25 07:43:29;;;;;;;4.2;3.8;;;;;;;5.55;100;940.1216;;;;
2022/12/25 07:45:59;;;;;;;5.1;4.6;;;;;;;5.61;100;940.0733;;;;
2022/12/25 07:48:28;;;;;;;4.6;4;;;;;;;5.58;100;940.0817;;;;
2022/12/25 07:50:54;;;;;;;4.5;4.1;;;;;;;5.48;100;940.0535;;;;
2022/12/25 07:53:19;;;;;;;5.5;5;;;;;;;5.6;100;940.0058;;;;
2022/12/25 07:55:48;;;;;;;5.9;4.9;;;;;;;5.57;100;939.9967;;;;
2022/12/25 07:58:15;;;;;;;6.2;5;;;;;;;5.52;100;939.9677;;;;
2022/12/25 08:00:40;;;;;;;5;4.5;;;;;;;5.45;100;939.9449;;;;
2022/12/25 08:03:10;;;;;;;4.5;4.1;;;;;;;5.46;100;939.9996;;;;
2022/12/25 08:05:40;;;;;;;5.4;4.1;;;;;;;5.44;100;939.9281;;;;
2022/12/25 08:08:05;;;;;;;4.3;3.9;;;;;;;5.47;100;939.955;;;;
2022/12/25 08:10:35;;;;;;;4.7;3.7;;;;;;;5.5;100;940.0112;;;;
2022/12/25 08:13:01;;;;;;;4.9;4.4;;;;;;;5.54;100;939.9913;;;;
2022/12/25 08:15:40;;;;;;;4.7;4.2;;;;;;;5.96;100;940.007;;;;
2022/12/25 08:18:09;;;;;;;4;3.6;;;;;;;6.86;99.03418;939.9116;;;;
2022/12/25 08:20:40;;;;;;;3.1;2.7;;;;;;;7.72;92.3584;939.9042;;;;
2022/12/25 08:23:09;;;;;;;2.7;2.5;;;;;;;8.46;87.72168;939.919;;;;
2022/12/25 08:25:34;;;;;;;4.5;3;;;;;;;8.25;86.76953;939.9371;;;;
2022/12/25 08:28:03;;;;;;;5.8;4;;;;;;;8.9;85.11426;939.8627;;;;
2022/12/25 08:30:28;;;;;;;4.2;3.8;;;;;;;9.2;83.375;939.9333;;;;
2022/12/25 08:32:57;;;;;;;4;3.5;;;;;;;9.4;82.10449;939.9345;;;;
2022/12/25 08:35:22;;;;;;;4.2;3.8;;;;;;;9.39;82.18164;939.9503;;;;
2022/12/25 08:37:49;;;;;;;4.9;3.7;;;;;;;9.36;81.90332;939.8973;;;;
2022/12/25 08:40:14;;;;;;;6;4.5;;;;;;;8.88;83.28027;939.9464;;;;
2022/12/25 08:42:40;;;;;;;7.3;4.9;;;;;;;8.5;85.44336;939.8775;;;;
2022/12/25 08:45:05;;;;;;;6.4;4.8;;;;;;;8.21;86.8623;939.9454;;;;
2022/12/25 08:47:31;;;;;;;8.2;5.7;;;;;;;7.85;89.11914;939.9716;;;;
2022/12/25 08:49:57;;;;;;;7.3;6.1;;;;;;;7.45;92.24316;939.9983;;;;
2022/12/25 08:52:26;;;;;;;7.7;5.5;;;;;;;7.26;94.97656;939.9648;;;;
2022/12/25 08:54:51;;;;;;;6;4.8;;;;;;;7.24;96.25293;939.965;;;;
2022/12/25 08:57:16;;;;;;;8.1;5.7;;;;;;;7.27;96.88184;939.9389;;;;
2022/12/25 08:59:41;;;;;;;6.4;4.7;;;;;;;7.46;97.43555;939.8947;;;;
2022/12/25 09:02:08;;;;;;;6.9;4.8;;;;;;;7.54;97.36328;939.9598;;;;
2022/12/25 09:04:34;;;;;;;7.3;5.3;;;;;;;7.65;97.75293;939.9486;;;;
2022/12/25 09:07:01;;;;;;;4;3.4;;;;;;;7.63;96.65723;939.9338;;;;
2022/12/25 09:09:26;;;;;;;3.6;2.7;;;;;;;7.83;96.63672;939.8767;;;;
2022/12/25 09:11:54;;;;;;;2.4;1.8;;;;;;;7.9;95.92383;939.9067;;;;
2022/12/25 09:14:19;;;;;;;1.4;1.3;;;;;;;7.92;96.33887;939.8605;;;;
2022/12/25 09:16:45;;;;;;;1.1;1;;;;;;;7.9;94.80078;939.818;;;;
2022/12/25 09:19:10;;;;;;;1.5;1.4;;;;;;;7.98;94.875;939.8261;;;;
2022/12/25 09:21:35;;;;;;;1;1;;;;;;;8.02;93.33008;939.7068;;;;
2022/12/25 09:24:02;;;;;;;0.8;0.8;;;;;;;7.97;93.14844;939.7228;;;;
2022/12/25 09:26:27;;;;;;;0.8;0.8;;;;;;;8.07;93.26074;939.7411;;;;
2022/12/25 09:28:53;;;;;;;1.2;1;;;;;;;8.17;93.56641;939.6685;;;;
2022/12/25 09:31:18;;;;;;;1.9;1.6;;;;;;;8.26;93.92676;939.6412;;;;
2022/12/25 09:33:45;;;;;;;1.9;1.7;;;;;;;8.25;95.25293;939.5848;;;;
2022/12/25 09:36:10;;;;;;;2.4;1.2;;;;;;;8.32;95.26953;939.5561;;;;
2022/12/25 09:38:36;;;;;;;1.5;1.4;;;;;;;8.36;95.51563;939.573;;;;
2022/12/25 09:41:01;;;;;;;2;1.5;;;;;;;8.42;95.48438;939.5341;;;;
2022/12/25 09:43:26;;;;;;;2.6;1.7;;;;;;;8.46;95.62891;939.4824;;;;
2022/12/25 09:45:55;;;;;;;56.5;36.3;;;;;;;8.5;95.5;939.3983;;;;
2022/12/25 09:48:21;;;;;;;100.8;51.9;;;;;;;8.63;95.78223;939.3599;;;;
2022/12/25 09:50:48;;;;;;;8.4;5.2;;;;;;;8.78;95.41504;939.2766;;;;
2022/12/25 09:53:13;;;;;;;3.7;3.3;;;;;;;8.83;95.89453;939.2756;;;;
2022/12/25 09:55:39;;;;;;;4.8;3.3;;;;;;;8.8;94.66992;939.2484;;;;
2022/12/25 09:58:06;;;;;;;4.3;3.9;;;;;;;8.87;94.50391;939.2302;;;;
2022/12/25 10:00:31;;;;;;;4.3;4;;;;;;;8.89;93.17578;939.1891;;;;
2022/12/25 10:03:01;;;;;;;2;1.9;;;;;;;8.98;93.02637;939.1638;;;;
2022/12/25 10:05:26;;;;;;;2.4;2;;;;;;;9.05;92.63184;939.0762;;;;
2022/12/25 10:07:51;;;;;;;1.8;1.6;;;;;;;9.02;92.19434;939.0527;;;;
2022/12/25 10:10:21;;;;;;;1.4;1.3;;;;;;;8.98;91.72949;939.07;;;;
2022/12/25 10:12:48;;;;;;;1.1;1;;;;;;;9.06;91.08496;939.0096;;;;
2022/12/25 10:15:14;;;;;;;0.8;0.8;;;;;;;9.02;89.31348;938.9963;;;;
2022/12/25 10:17:39;;;;;;;0.9;0.9;;;;;;;9.04;89.26172;939.0228;;;;
2022/12/25 10:20:04;;;;;;;1.3;1.2;;;;;;;9.21;90.57031;939.0023;;;;
2022/12/25 10:22:29;;;;;;;3.1;1.7;;;;;;;9.35;90.97656;938.9922;;;;
2022/12/25 10:24:54;;;;;;;0.5;0.5;;;;;;;9.27;88.6377;938.9496;;;;
2022/12/25 10:27:21;;;;;;;1;0.9;;;;;;;9.32;89.04688;938.9766;;;;
2022/12/25 10:29:46;;;;;;;0.9;0.7;;;;;;;9.43;89.58203;938.9602;;;;
2022/12/25 10:32:12;;;;;;;1.8;1.3;;;;;;;9.47;87.36816;938.9163;;;;
2022/12/25 10:34:37;;;;;;;0.5;0.5;;;;;;;9.58;86.08008;938.9442;;;;
2022/12/25 10:37:05;;;;;;;40.9;14;;;;;;;9.86;88.38184;938.8658;;;;
2022/12/25 10:39:30;;;;;;;24.5;8.9;;;;;;;10.19;88.09668;938.793;;;;
2022/12/25 10:42:02;;;;;;;3.2;1.6;;;;;;;10.47;84.53613;938.731;;;;
2022/12/25 10:44:26;;;;;;;3.3;1.9;;;;;;;10.63;82.8877;938.6483;;;;
2022/12/25 10:46:56;;;;;;;5;2.7;;;;;;;10.62;85.04395;938.7692;;;;
2022/12/25 10:49:21;;;;;;;3.9;2.5;;;;;;;10.75;84.48438;938.6566;;;;
2022/12/25 10:51:51;;;;;;;1.6;1.5;;;;;;;10.96;80.12891;938.7082;;;;
2022/12/25 10:54:16;;;;;;;1;0.9;;;;;;;10.94;80.05469;938.6068;;;;
2022/12/25 10:56:43;;;;;;;2.3;1.6;;;;;;;10.88;83.06152;938.682;;;;
2022/12/25 10:59:08;;;;;;;3.7;2.3;;;;;;;10.87;80.27051;938.6213;;;;
2022/12/25 11:01:36;;;;;;;1.9;1.4;;;;;;;10.91;81.57031;938.6248;;;;
2022/12/25 11:04:02;;;;;;;2.2;2;;;;;;;10.97;80.4502;938.5362;;;;
2022/12/25 11:06:27;;;;;;;2.1;1.9;;;;;;;11.09;82.63281;938.4752;;;;
2022/12/25 11:08:56;;;;;;;1.8;1.7;;;;;;;11.1;82.31445;938.5016;;;;
2022/12/25 11:11:21;;;;;;;2.8;1.5;;;;;;;11.34;81.68555;938.5275;;;;
2022/12/25 11:13:50;;;;;;;2;1.8;;;;;;;11.47;83.82715;938.5812;;;;
2022/12/25 11:16:16;;;;;;;2.1;1.9;;;;;;;11.35;83.48242;938.4973;;;;
2022/12/25 11:18:41;;;;;;;3;2.5;;;;;;;11.53;84.58105;938.5003;;;;
2022/12/25 11:21:08;;;;;;;2.1;1.9;;;;;;;11.69;83.9834;938.4816;;;;
2022/12/25 11:23:33;;;;;;;1.6;1.5;;;;;;;11.53;80.85156;938.3816;;;;
2022/12/25 11:25:59;;;;;;;2.3;1.6;;;;;;;11.31;81.39355;938.4189;;;;
2022/12/25 11:28:24;;;;;;;2.7;1.8;;;;;;;11.52;82.58789;938.3599;;;;
2022/12/25 11:30:49;;;;;;;1.2;1.1;;;;;;;11.56;80.83398;938.3259;;;;
2022/12/25 11:33:18;;;;;;;1.8;1.2;;;;;;;11.5;82.21875;938.3175;;;;
2022/12/25 11:35:44;;;;;;;1.8;1.5;;;;;;;11.76;82.06055;938.2195;;;;
2022/12/25 11:38:14;;;;;;;2.4;1.5;;;;;;;11.66;81.16016;938.1591;;;;
2022/12/25 11:40:43;;;;;;;1.1;1;;;;;;;11.81;80.7666;938.1222;;;;
2022/12/25 11:43:09;;;;;;;5.3;3.4;;;;;;;11.98;79.05762;938.055;;;;
2022/12/25 11:45:37;;;;;;;2.4;2.1;;;;;;;12.13;78.15723;937.9944;;;;
2022/12/25 11:48:02;;;;;;;9;6.1;;;;;;;12.2;78.63672;938.0002;;;;
2022/12/25 11:50:28;;;;;;;4.5;3.3;;;;;;;12.13;76.86035;937.9497;;;;
2022/12/25 11:52:53;;;;;;;1.1;1;;;;;;;12.21;76.75879;937.8716;;;;
2022/12/25 11:55:18;;;;;;;1.2;1;;;;;;;12.21;78.18164;937.9219;;;;
2022/12/25 11:57:43;;;;;;;1.5;1;;;;;;;12.02;77.32227;937.8998;;;;
2022/12/25 12:00:18;;;;;;;3.6;2.5;;;;;;;12.06;80.05566;937.9143;;;;
2022/12/25 12:02:54;;;;;;;2.1;1.7;;;;;;;11.85;79.22949;937.8878;;;;
2022/12/25 12:05:20;;;;;;;18.4;10.1;;;;;;;12.02;80.0498;937.8871;;;;
2022/12/25 12:07:44;;;;;;;1.9;1.7;;;;;;;11.84;79.56738;937.8599;;;;
2022/12/25 12:10:14;;;;;;;1.9;1.7;;;;;;;11.87;80.81152;937.7961;;;;
2022/12/25 12:12:41;;;;;;;5;4.1;;;;;;;11.84;80.24512;937.7985;;;;
2022/12/25 12:15:13;;;;;;;1.4;1.2;;;;;;;11.78;79.61523;937.8047;;;;
2022/12/25 12:17:41;;;;;;;1.3;1.2;;;;;;;11.96;79.84277;937.8259;;;;
2022/12/25 12:20:14;;;;;;;1.6;1.5;;;;;;;12.11;80.18066;937.7715;;;;
2022/12/25 12:22:39;;;;;;;2;1.4;;;;;;;12.29;79.14746;937.7452;;;;
2022/12/25 12:25:04;;;;;;;2.4;1.5;;;;;;;12.27;78.7666;937.6892;;;;
2022/12/25 12:27:32;;;;;;;4.5;3.1;;;;;;;12.27;78.99512;937.6844;;;;
2022/12/25 12:29:57;;;;;;;6.8;4.6;;;;;;;12.48;79.60547;937.5733;;;;
2022/12/25 12:32:24;;;;;;;4;2.9;;;;;;;12.43;78.49707;937.483;;;;
2022/12/25 12:34:50;;;;;;;2.4;2.2;;;;;;;12.14;79.44043;937.4348;;;;
2022/12/25 12:37:15;;;;;;;2.9;2.3;;;;;;;12.22;80.63477;937.4297;;;;
2022/12/25 12:39:40;;;;;;;2.6;2.1;;;;;;;12.2;81.7793;937.4022;;;;
2022/12/25 12:42:05;;;;;;;2.5;2.1;;;;;;;12.22;83.02051;937.3323;;;;
2022/12/25 12:44:30;;;;;;;2.6;2;;;;;;;12.24;83.12695;937.4114;;;;
2022/12/25 12:46:55;;;;;;;2.2;1.8;;;;;;;12.36;82.2207;937.3516;;;;
2022/12/25 12:49:23;;;;;;;2;1.6;;;;;;;12.34;81.87305;937.3954;;;;
2022/12/25 12:51:48;;;;;;;2.6;2.2;;;;;;;12.1;82.59473;937.426;;;;
2022/12/25 12:54:16;;;;;;;5;2.4;;;;;;;12.11;83.59375;937.3725;;;;
2022/12/25 12:56:40;;;;;;;4.7;2.3;;;;;;;12.06;83.67676;937.4155;;;;
2022/12/25 12:59:05;;;;;;;2.9;2.2;;;;;;;11.85;84.34668;937.3836;;;;
2022/12/25 13:01:30;;;;;;;3;1.9;;;;;;;;;;;;;
2022/12/25 13:03:56;;;;;;;2.2;1.7;;;;;;;;;;;;;
2022/12/25 13:06:22;;;;;;;1.6;1.4;;;;;;;;;;;;;
2022/12/25 13:08:47;;;;;;;3.1;1.8;;;;;;;;;;;;;
2022/12/25 13:11:12;;;;;;;9.1;6.5;;;;;;;;;;;;;
2022/12/25 13:13:37;;;;;;;4.2;2.5;;;;;;;;;;;;;
2022/12/25 13:16:02;;;;;;;2.6;1.7;;;;;;;;;;;;;
2022/12/25 13:18:29;;;;;;;1.3;1;;;;;;;;;;;;;
2022/12/25 13:20:55;;;;;;;1.2;0.9;;;;;;;;;;;;;
2022/12/25 13:23:19;;;;;;;1.6;1.2;;;;;;;;;;;;;
2022/12/25 13:25:44;;;;;;;1.8;1.6;;;;;;;;;;;;;
2022/12/25 13:28:09;;;;;;;1.6;1.5;;;;;;;;;;;;;
2022/12/25 13:30:34;;;;;;;2.5;2.2;;;;;;;;;;;;;
2022/12/25 13:32:59;;;;;;;2.2;1.6;;;;;;;;;;;;;
2022/12/25 13:35:24;;;;;;;2.2;1.8;;;;;;;;;;;;;
2022/12/25 13:37:50;;;;;;;2.6;2.2;;;;;;;;;;;;;
2022/12/25 13:40:15;;;;;;;1.5;1.4;;;;;;;;;;;;;
2022/12/25 13:42:43;;;;;;;1.4;1.2;;;;;;;;;;;;;
2022/12/25 13:45:08;;;;;;;52.7;14.6;;;;;;;;;;;;;
2022/12/25 13:47:33;;;;;;;34.9;9.7;;;;;;;;;;;;;
2022/12/25 13:49:58;;;;;;;1.7;1;;;;;;;;;;;;;
2022/12/25 13:52:24;;;;;;;3.7;1.8;;;;;;;;;;;;;
2022/12/25 13:54:50;;;;;;;7.8;3;;;;;;;;;;;;;
2022/12/25 13:57:15;;;;;;;5;2.5;;;;;;;;;;;;;
2022/12/25 13:59:41;;;;;;;2.9;1.6;;;;;;;;;;;;;
2022/12/25 14:02:06;;;;;;;3.9;2.7;;;;;;;;;;;;;
2022/12/25 14:04:31;;;;;;;5.4;4;;;;;;;;;;;;;
2022/12/25 14:06:58;;;;;;;6.2;4.2;;;;;;;;;;;;;
2022/12/25 14:09:23;;;;;;;5.7;3.9;;;;;;;;;;;;;
2022/12/25 14:11:49;;;;;;;4.5;3.7;;;;;;;;;;;;;
2022/12/25 14:14:14;;;;;;;3.6;3.2;;;;;;;;;;;;;
2022/12/25 14:16:42;;;;;;;4.6;2.9;;;;;;;;;;;;;
2022/12/25 14:19:06;;;;;;;4.7;3.8;;;;;;;;;;;;;
2022/12/25 14:21:31;;;;;;;4;3.2;;;;;;;;;;;;;
2022/12/25 14:23:56;;;;;;;4.3;3.2;;;;;;;;;;;;;
2022/12/25 14:26:21;;;;;;;4.8;4;;;;;;;;;;;;;
2022/12/25 14:28:49;;;;;;;11.4;6.3;;;;;;;;;;;;;
2022/12/25 14:31:14;;;;;;;8.1;5.8;;;;;;;;;;;;;
2022/12/25 14:33:39;;;;;;;7.1;4.8;;;;;;;;;;;;;
2022/12/25 14:36:05;;;;;;;6.7;5;;;;;;;;;;;;;
2022/12/25 14:38:33;;;;;;;6.7;4.9;;;;;;;;;;;;;
2022/12/25 14:40:56;;;;;;;462;249.4;;;;;;;;;;;;;
2022/12/25 14:43:21;;;;;;;24.7;14.3;;;;;;;;;;;;;
2022/12/25 14:45:46;;;;;;;8.9;5.9;;;;;;;;;;;;;
2022/12/25 14:48:11;;;;;;;8;5.8;;;;;;;;;;;;;
2022/12/25 14:50:38;;;;;;;7.6;5.1;;;;;;;;;;;;;
2022/12/25 14:53:02;;;;;;;7.1;4.7;;;;;;;;;;;;;
2022/12/25 14:55:27;;;;;;;8.8;5.9;;;;;;;;;;;;;
2022/12/25 14:57:52;;;;;;;10.6;6.5;;;;;;;;;;;;;
2022/12/25 15:00:17;;;;;;;9.6;6.5;;;;;;;;;;;;;
2022/12/25 15:02:42;;;;;;;10.6;7.3;;;;;;;;;;;;;
2022/12/25 15:05:08;;;;;;;10.7;7.1;;;;;;;;;;;;;
2022/12/25 15:07:33;;;;;;;8.2;6;;;;;;;;;;;;;
2022/12/25 15:09:58;;;;;;;9.2;6.1;;;;;;;;;;;;;
2022/12/25 15:12:23;;;;;;;12.7;8.7;;;;;;;;;;;;;
2022/12/25 15:14:48;;;;;;;13.1;9.5;;;;;;;;;;;;;
2022/12/25 15:17:13;;;;;;;12;7.9;;;;;;;;;;;;;
2022/12/25 15:19:39;;;;;;;9.5;7.6;;;;;;;;;;;;;
2022/12/25 15:22:04;;;;;;;12.6;9.5;;;;;;;;;;;;;
2022/12/25 15:24:30;;;;;;;12.6;9.9;;;;;;;;;;;;;
2022/12/25 15:26:58;;;;;;;13.4;10.6;;;;;;;;;;;;;
2022/12/25 15:29:21;;;;;;;12.2;9.4;;;;;;;;;;;;;
2022/12/25 15:31:46;;;;;;;18.9;13;;;;;;;;;;;;;
2022/12/25 15:34:11;;;;;;;22.3;16.6;;;;;;;;;;;;;
2022/12/25 15:36:37;;;;;;;22.3;15.4;;;;;;;;;;;;;
2022/12/25 15:39:02;;;;;;;15.6;11.2;;;;;;;;;;;;;
2022/12/25 15:43:54;;;;;;;14.1;10.7;;;;;;;;;;;;;
2022/12/25 15:46:23;;;;;;;17.8;12.7;;;;;;;;;;;;;
2022/12/25 15:48:44;;;;;;;16.7;12.2;;;;;;;;;;;;;
2022/12/25 15:51:09;;;;;;;17.5;12.8;;;;;;;;;;;;;
2022/12/25 15:53:34;;;;;;;18.5;12.8;;;;;;;;;;;;;
2022/12/25 15:56:00;;;;;;;16.1;11.4;;;;;;;;;;;;;
2022/12/25 15:58:25;;;;;;;16.5;11.1;;;;;;;;;;;;;
2022/12/25 16:00:52;;;;;;;18.6;13.5;;;;;;;;;;;;;
2022/12/25 16:03:17;;;;;;;19;14.6;;;;;;;;;;;;;
2022/12/25 16:05:44;;;;;;;19.9;14.4;;;;;;;;;;;;;
2022/12/25 16:08:09;;;;;;;21.5;15;;;;;;;;;;;;;
2022/12/25 16:10:35;;;;;;;18.8;14.1;;;;;;;;;;;;;
2022/12/25 16:13:00;;;;;;;19.1;12.8;;;;;;;;;;;;;
2022/12/25 16:15:25;;;;;;;18.5;13.7;;;;;;;;;;;;;
2022/12/25 16:17:50;;;;;;;19.2;14.9;;;;;;;;;;;;;
2022/12/25 16:20:18;;;;;;;16.8;13.6;;;;;;;;;;;;;
2022/12/25 16:22:43;;;;;;;23.3;16.5;;;;;;;;;;;;;
2022/12/25 16:25:12;;;;;;;20.4;15.6;;;;;;;;;;;;;
2022/12/25 16:27:38;;;;;;;21;15.8;;;;;;;;;;;;;
2022/12/25 16:30:04;;;;;;;23;16.3;;;;;;;;;;;;;
2022/12/25 16:32:30;;;;;;;25.8;17.7;;;;;;;;;;;;;
2022/12/25 16:34:56;;;;;;;25.9;18;;;;;;;;;;;;;
2022/12/25 16:37:22;;;;;;;25.3;17.2;;;;;;;;;;;;;
2022/12/25 16:39:47;;;;;;;15;11.9;;;;;;;;;;;;;
2022/12/25 16:42:13;;;;;;;20.1;16.1;;;;;;;;;;;;;
2022/12/25 16:44:38;;;;;;;22;15.5;;;;;;;;;;;;;
2022/12/25 16:47:04;;;;;;;21.3;16.1;;;;;;;;;;;;;
2022/12/25 16:49:29;;;;;;;19;15.2;;;;;;;;;;;;;
2022/12/25 16:51:55;;;;;;;22.8;15.9;;;;;;;;;;;;;
2022/12/25 16:54:20;;;;;;;28.9;21;;;;;;;;;;;;;
2022/12/25 16:56:46;;;;;;;26.3;19.1;;;;;;;;;;;;;
2022/12/25 16:59:11;;;;;;;24.1;19.3;;;;;;;;;;;;;
2022/12/25 17:01:41;;;;;;;27.5;19.8;;;;;;;;;;;;;
2022/12/25 17:04:03;;;;;;;31.8;22.8;;;;;;;;;;;;;
2022/12/25 17:06:28;;;;;;;25.4;19.2;;;;;;;;;;;;;
2022/12/25 17:08:53;;;;;;;24.4;18.1;;;;;;;;;;;;;
2022/12/25 17:11:24;;;;;;;26.7;18.3;;;;;;;;;;;;;
2022/12/25 17:13:44;;;;;;;22.5;16.5;;;;;;;;;;;;;
2022/12/25 17:16:11;;;;;;;23.4;18.4;;;;;;;;;;;;;
2022/12/25 17:18:36;;;;;;;25.3;18.9;;;;;;;;;;;;;
2022/12/25 17:21:01;;;;;;;25.7;19.7;;;;;;;;;;;;;
2022/12/25 17:23:26;;;;;;;27.6;21;;;;;;;;;;;;;
2022/12/25 17:25:53;;;;;;;29.9;21.5;;;;;;;;;;;;;
2022/12/25 17:28:18;;;;;;;26.7;20.5;;;;;;;;;;;;;
2022/12/25 17:30:44;;;;;;;26.5;18.9;;;;;;;;;;;;;
2022/12/25 17:33:09;;;;;;;31.6;22;;;;;;;;;;;;;
2022/12/25 17:35:37;;;;;;;31;22.3;;;;;;;;;;;;;
2022/12/25 17:38:02;;;;;;;28.1;20.2;;;;;;;;;;;;;
2022/12/25 17:40:29;;;;;;;32.5;22.1;;;;;;;;;;;;;
2022/12/25 17:42:54;;;;;;;30;21.4;;;;;;;;;;;;;
2022/12/25 17:45:20;;;;;;;29.6;22;;;;;;;;;;;;;
2022/12/25 17:47:45;;;;;;;29.1;22.8;;;;;;;;;;;;;
2022/12/25 17:50:13;;;;;;;29.1;22.2;;;;;;;;;;;;;
2022/12/25 17:52:38;;;;;;;38.1;27.9;;;;;;;;;;;;;
2022/12/25 17:55:03;;;;;;;40.9;29.2;;;;;;;;;;;;;
2022/12/25 17:57:28;;;;;;;36.3;26.7;;;;;;;;;;;;;
2022/12/25 17:59:54;;;;;;;39.6;27.6;;;;;;;;;;;;;
2022/12/25 18:02:19;;;;;;;37;27.7;;;;;;;;;;;;;
2022/12/25 18:04:46;;;;;;;57.1;39.4;;;;;;;;;;;;;
2022/12/25 18:07:11;;;;;;;38.1;27.4;;;;;;;;;;;;;
2022/12/25 18:09:36;;;;;;;37.6;27;;;;;;;;;;;;;
2022/12/25 18:12:01;;;;;;;31.3;23.3;;;;;;;;;;;;;
2022/12/25 18:14:28;;;;;;;38.6;28.3;;;;;;;;;;;;;
2022/12/25 18:16:53;;;;;;;31.2;23;;;;;;;;;;;;;
2022/12/25 18:19:20;;;;;;;32.6;24.6;;;;;;;;;;;;;
2022/12/25 18:21:45;;;;;;;36.7;25.8;;;;;;;;;;;;;
2022/12/25 18:24:11;;;;;;;34.3;24.6;;;;;;;;;;;;;
2022/12/25 18:26:36;;;;;;;35.9;26.5;;;;;;;;;;;;;
2022/12/25 18:29:01;;;;;;;41;28.2;;;;;;;;;;;;;
2022/12/25 18:31:28;;;;;;;36.8;25.2;;;;;;;;;;;;;
2022/12/25 18:33:54;;;;;;;37.7;27.7;;;;;;;;;;;;;
2022/12/25 18:36:20;;;;;;;36;25.8;;;;;;;;;;;;;
2022/12/25 18:38:45;;;;;;;68.3;45.2;;;;;;;;;;;;;
2022/12/25 18:41:10;;;;;;;47.1;34.1;;;;;;;;;;;;;
2022/12/25 18:43:36;;;;;;;44;31.3;;;;;;;;;;;;;
2022/12/25 18:46:01;;;;;;;50.7;35.1;;;;;;;;;;;;;
2022/12/25 18:48:27;;;;;;;45.7;33.1;;;;;;;;;;;;;
2022/12/25 18:50:53;;;;;;;44.2;31.5;;;;;;;;;;;;;